Time,TemperatureF,DewpointF,PressureIn,WindDirection,WindDirectionDegrees,WindSpeedMPH,WindSpeedGustMPH,Humidity,HourlyPrecipIn,Conditions,Clouds,dailyrainin,SoftwareType,DateUTC
2013-01-25 00:01:00,48.0,44.0,29.43,East,79,2.0,4.0,86,0.01,,,0.50,,2013-01-24 23:01:00,
2013-01-25 00:11:00,48.0,44.0,29.43,East,79,2.0,4.0,86,0.01,,,0.50,,2013-01-24 23:11:00,
2013-01-25 00:21:00,48.0,44.0,29.42,NE,51,2.0,5.0,87,0.00,,,0.50,,2013-01-24 23:21:00,
2013-01-25 00:31:00,48.0,44.0,29.42,NNE,31,3.0,6.0,87,0.00,,,0.50,,2013-01-24 23:31:00,
2013-01-25 00:42:00,48.0,44.0,29.42,NNE,31,3.0,6.0,87,0.00,,,0.50,,2013-01-24 23:42:00,
2013-01-25 00:52:00,48.0,45.0,29.41,ENE,59,3.0,7.0,88,0.00,,,0.49,,2013-01-24 23:52:00,
2013-01-25 01:01:00,48.0,44.0,29.41,ENE,57,3.0,4.0,87,0.00,,,0.49,,2013-01-25 00:01:00,
2013-01-25 01:11:00,48.0,44.0,29.41,ENE,57,3.0,4.0,87,0.00,,,0.49,,2013-01-25 00:11:00,
2013-01-25 01:21:00,48.0,44.0,29.40,ENE,64,1.0,4.0,87,0.00,,,0.49,,2013-01-25 00:21:00,
2013-01-25 01:31:00,48.0,44.0,29.40,ENE,64,2.0,3.0,86,0.00,,,0.49,,2013-01-25 00:31:00,
2013-01-25 01:41:00,48.0,44.0,29.40,ENE,64,2.0,3.0,86,0.00,,,0.49,,2013-01-25 00:41:00,
2013-01-25 01:52:00,48.0,44.0,29.40,ENE,64,2.0,3.0,85,0.00,,,0.49,,2013-01-25 00:52:00,
2013-01-25 02:01:00,48.0,43.0,29.40,ENE,65,3.0,3.0,84,0.00,,,0.48,,2013-01-25 01:01:00,
2013-01-25 02:11:00,48.0,44.0,29.39,East,86,3.0,4.0,86,0.00,,,0.46,,2013-01-25 01:11:00,
2013-01-25 02:21:00,48.0,44.0,29.39,East,86,3.0,4.0,86,0.00,,,0.46,,2013-01-25 01:21:00,
2013-01-25 02:31:00,48.0,44.0,29.39,East,86,4.0,5.0,87,0.00,,,0.46,,2013-01-25 01:31:00,
2013-01-25 02:41:00,48.0,44.0,29.39,East,86,4.0,5.0,87,0.00,,,0.46,,2013-01-25 01:41:00,
2013-01-25 02:52:00,48.0,44.0,29.39,East,82,6.0,6.0,87,0.00,,,0.46,,2013-01-25 01:52:00,
2013-01-25 03:01:00,48.0,44.0,29.39,ENE,77,6.0,8.0,87,0.00,,,0.46,,2013-01-25 02:01:00,
2013-01-25 03:11:00,48.0,44.0,29.39,ENE,77,6.0,8.0,87,0.00,,,0.46,,2013-01-25 02:11:00,
2013-01-25 03:21:00,48.0,44.0,29.39,East,79,5.0,6.0,87,0.00,,,0.43,,2013-01-25 02:21:00,
2013-01-25 03:31:00,48.0,44.0,29.39,East,82,6.0,6.0,86,0.00,,,0.43,,2013-01-25 02:31:00,
2013-01-25 03:41:00,48.0,44.0,29.39,East,84,4.0,6.0,86,0.00,,,0.41,,2013-01-25 02:41:00,
2013-01-25 03:52:00,48.0,44.0,29.39,East,84,4.0,6.0,86,0.00,,,0.41,,2013-01-25 02:52:00,
2013-01-25 04:01:00,48.0,44.0,29.39,East,84,4.0,5.0,86,0.00,,,0.41,,2013-01-25 03:01:00,
2013-01-25 04:11:00,48.0,44.0,29.39,East,84,4.0,5.0,85,0.00,,,0.40,,2013-01-25 03:11:00,
2013-01-25 04:21:00,48.0,44.0,29.39,East,84,4.0,5.0,85,0.00,,,0.40,,2013-01-25 03:21:00,
2013-01-25 04:32:00,48.0,44.0,29.38,East,84,3.0,4.0,85,0.00,,,0.40,,2013-01-25 03:32:00,
2013-01-25 04:41:00,48.0,44.0,29.38,East,84,3.0,4.0,85,0.00,,,0.40,,2013-01-25 03:41:00,
2013-01-25 04:52:00,48.0,43.0,29.39,East,84,4.0,4.0,83,0.00,,,0.40,,2013-01-25 03:52:00,
2013-01-25 05:01:00,48.0,43.0,29.39,ENE,77,3.0,6.0,82,0.00,,,0.40,,2013-01-25 04:01:00,
2013-01-25 05:11:00,49.0,43.0,29.39,ENE,75,3.0,7.0,81,0.00,,,0.35,,2013-01-25 04:11:00,
2013-01-25 05:22:00,49.0,43.0,29.39,ENE,75,3.0,7.0,81,0.00,,,0.35,,2013-01-25 04:22:00,
2013-01-25 05:31:00,49.0,43.0,29.39,East,84,5.0,6.0,80,0.00,,,0.27,,2013-01-25 04:31:00,
2013-01-25 05:41:00,49.0,43.0,29.39,East,84,5.0,6.0,80,0.00,,,0.27,,2013-01-25 04:41:00,
2013-01-25 05:51:00,48.0,42.0,29.39,ENE,77,4.0,4.0,81,0.00,,,0.20,,2013-01-25 04:51:00,
2013-01-25 06:03:00,48.0,42.0,29.39,East,80,3.0,5.0,81,0.00,,,0.17,,2013-01-25 05:03:00,
2013-01-25 06:12:00,48.0,42.0,29.39,NE,44,4.0,9.0,80,0.00,,,0.13,,2013-01-25 05:12:00,
2013-01-25 06:22:00,48.0,42.0,29.39,NE,44,4.0,9.0,80,0.00,,,0.13,,2013-01-25 05:22:00,
2013-01-25 06:31:00,48.0,41.0,29.39,ENE,65,8.0,14.0,78,0.00,,,0.13,,2013-01-25 05:31:00,
2013-01-25 06:42:00,48.0,41.0,29.39,ENE,65,8.0,14.0,78,0.00,,,0.13,,2013-01-25 05:42:00,
2013-01-25 06:52:00,48.0,41.0,29.39,NE,54,7.0,12.0,77,0.00,,,0.12,,2013-01-25 05:52:00,
2013-01-25 07:01:00,48.0,41.0,29.39,ENE,69,7.0,10.0,77,0.00,,,0.12,,2013-01-25 06:01:00,
2013-01-25 07:11:00,48.0,41.0,29.39,ENE,69,7.0,10.0,77,0.00,,,0.12,,2013-01-25 06:11:00,
2013-01-25 07:21:00,49.0,40.0,29.40,ENE,69,8.0,20.0,71,0.00,,,0.12,,2013-01-25 06:21:00,
2013-01-25 07:31:00,48.0,39.0,29.40,ENE,59,8.0,15.0,72,0.00,,,0.12,,2013-01-25 06:31:00,
2013-01-25 07:41:00,48.0,40.0,29.40,ENE,71,4.0,13.0,74,0.00,,,0.09,,2013-01-25 06:41:00,
2013-01-25 07:52:00,48.0,40.0,29.40,ENE,71,4.0,13.0,74,0.00,,,0.09,,2013-01-25 06:52:00,
2013-01-25 08:01:00,47.0,39.0,29.40,NNE,32,10.0,11.0,75,0.00,,,0.09,,2013-01-25 07:01:00,
2013-01-25 08:11:00,47.0,40.0,29.40,NE,53,7.0,14.0,76,0.00,,,0.09,,2013-01-25 07:11:00,
2013-01-25 08:21:00,47.0,40.0,29.40,NE,53,7.0,14.0,76,0.00,,,0.09,,2013-01-25 07:21:00,
2013-01-25 08:31:00,47.0,39.0,29.40,ENE,67,13.0,14.0,73,0.00,,,0.09,,2013-01-25 07:31:00,
2013-01-25 08:41:00,48.0,40.0,29.41,NE,37,12.0,12.0,73,0.00,,,0.09,,2013-01-25 07:41:00,
2013-01-25 08:51:00,48.0,40.0,29.41,NE,37,12.0,12.0,73,0.00,,,0.09,,2013-01-25 07:51:00,
2013-01-25 09:01:00,48.0,39.0,29.41,ENE,63,11.0,16.0,71,0.00,,,0.09,,2013-01-25 08:01:00,
2013-01-25 09:11:00,49.0,39.0,29.41,ENE,57,10.0,17.0,68,0.00,,,0.09,,2013-01-25 08:11:00,
2013-01-25 09:21:00,49.0,39.0,29.41,ENE,57,10.0,17.0,68,0.00,,,0.09,,2013-01-25 08:21:00,
2013-01-25 09:31:00,49.0,39.0,29.42,ENE,67,12.0,16.0,67,0.00,,,0.09,,2013-01-25 08:31:00,
2013-01-25 09:41:00,49.0,39.0,29.42,ENE,67,12.0,16.0,67,0.00,,,0.09,,2013-01-25 08:41:00,
2013-01-25 09:52:00,50.0,39.0,29.42,ENE,76,13.0,18.0,66,0.00,,,0.09,,2013-01-25 08:52:00,
2013-01-25 10:01:00,50.0,39.0,29.42,ENE,69,11.0,20.0,66,0.00,,,0.09,,2013-01-25 09:01:00,
2013-01-25 10:11:00,50.0,39.0,29.43,ENE,69,10.0,13.0,66,0.00,,,0.09,,2013-01-25 09:11:00,
2013-01-25 10:21:00,50.0,39.0,29.43,ENE,69,10.0,13.0,66,0.00,,,0.09,,2013-01-25 09:21:00,
2013-01-25 10:31:00,51.0,40.0,29.44,NE,40,5.0,12.0,66,0.00,,,0.09,,2013-01-25 09:31:00,
2013-01-25 10:41:00,51.0,40.0,29.44,NE,40,5.0,12.0,66,0.00,,,0.09,,2013-01-25 09:41:00,
2013-01-25 10:52:00,50.0,39.0,29.44,East,81,9.0,14.0,66,0.00,,,0.09,,2013-01-25 09:52:00,
2013-01-25 11:01:00,50.0,39.0,29.44,East,80,5.0,10.0,66,0.00,,,0.09,,2013-01-25 10:01:00,
2013-01-25 11:11:00,50.0,39.0,29.44,East,96,6.0,14.0,65,0.00,,,0.09,,2013-01-25 10:11:00,
2013-01-25 11:21:00,50.0,39.0,29.44,East,96,6.0,14.0,65,0.00,,,0.09,,2013-01-25 10:21:00,
2013-01-25 11:31:00,50.0,39.0,29.44,ESE,122,3.0,11.0,66,0.00,,,0.08,,2013-01-25 10:31:00,
2013-01-25 11:41:00,50.0,39.0,29.44,ESE,122,3.0,11.0,66,0.00,,,0.08,,2013-01-25 10:41:00,
2013-01-25 11:52:00,51.0,39.0,29.44,ENE,77,10.0,16.0,64,0.00,,,0.08,,2013-01-25 10:52:00,
2013-01-25 12:01:00,52.0,40.0,29.44,East,85,9.0,17.0,63,0.00,,,0.08,,2013-01-25 11:01:00,
2013-01-25 12:11:00,52.0,40.0,29.44,East,85,9.0,17.0,63,0.00,,,0.08,,2013-01-25 11:11:00,
2013-01-25 12:21:00,52.0,39.0,29.44,NE,51,15.0,20.0,62,0.00,,,0.08,,2013-01-25 11:21:00,
2013-01-25 12:31:00,52.0,39.0,29.43,ESE,118,6.0,12.0,62,0.00,,,0.08,,2013-01-25 11:31:00,
2013-01-25 12:41:00,52.0,39.0,29.43,ESE,118,6.0,12.0,62,0.00,,,0.08,,2013-01-25 11:41:00,
2013-01-25 12:52:00,52.0,39.0,29.43,ENE,58,7.0,16.0,60,0.00,,,0.07,,2013-01-25 11:52:00,
2013-01-25 13:01:00,53.0,39.0,29.43,East,101,14.0,17.0,59,0.00,,,0.07,,2013-01-25 12:01:00,
2013-01-25 13:11:00,53.0,39.0,29.43,East,101,14.0,17.0,59,0.00,,,0.07,,2013-01-25 12:11:00,
2013-01-25 13:21:00,53.0,39.0,29.43,ENE,61,9.0,13.0,59,0.00,,,0.05,,2013-01-25 12:21:00,
2013-01-25 13:31:00,53.0,39.0,29.43,ENE,61,4.0,10.0,59,0.00,,,0.05,,2013-01-25 12:31:00,
2013-01-25 13:41:00,53.0,39.0,29.43,ENE,61,4.0,10.0,59,0.00,,,0.05,,2013-01-25 12:41:00,
2013-01-25 13:53:00,53.0,39.0,29.43,NE,42,9.0,15.0,59,0.00,,,0.05,,2013-01-25 12:53:00,
2013-01-25 14:01:00,53.0,39.0,29.43,NE,51,5.0,12.0,59,0.00,,,0.05,,2013-01-25 13:01:00,
2013-01-25 14:11:00,53.0,39.0,29.43,NE,51,5.0,12.0,59,0.00,,,0.05,,2013-01-25 13:11:00,
2013-01-25 14:21:00,53.0,38.0,29.43,ENE,63,2.0,12.0,56,0.00,,,0.05,,2013-01-25 13:21:00,
2013-01-25 14:31:00,54.0,39.0,29.43,North,9,3.0,17.0,56,0.00,,,0.05,,2013-01-25 13:31:00,
2013-01-25 14:42:00,54.0,39.0,29.43,North,9,3.0,17.0,56,0.00,,,0.05,,2013-01-25 13:42:00,
2013-01-25 14:52:00,53.0,38.0,29.44,ENE,62,7.0,9.0,57,0.00,,,0.05,,2013-01-25 13:52:00,
2013-01-25 15:01:00,53.0,37.0,29.44,ENE,71,3.0,11.0,55,0.00,,,0.05,,2013-01-25 14:01:00,
2013-01-25 15:11:00,53.0,37.0,29.44,ENE,71,3.0,11.0,55,0.00,,,0.05,,2013-01-25 14:11:00,
2013-01-25 15:22:00,53.0,38.0,29.44,ENE,74,4.0,11.0,57,0.00,,,0.05,,2013-01-25 14:22:00,
2013-01-25 15:32:00,53.0,38.0,29.45,ENE,67,2.0,5.0,57,0.00,,,0.05,,2013-01-25 14:32:00,
2013-01-25 15:41:00,53.0,38.0,29.45,ENE,67,2.0,5.0,57,0.00,,,0.05,,2013-01-25 14:41:00,
2013-01-25 15:53:00,52.0,37.0,29.46,ENE,78,4.0,13.0,56,0.00,,,0.05,,2013-01-25 14:53:00,
2013-01-25 16:01:00,52.0,37.0,29.46,East,88,11.0,14.0,56,0.00,,,0.05,,2013-01-25 15:01:00,
2013-01-25 16:11:00,52.0,37.0,29.46,East,88,11.0,14.0,56,0.00,,,0.05,,2013-01-25 15:11:00,
2013-01-25 16:21:00,52.0,37.0,29.46,East,84,5.0,14.0,57,0.00,,,0.05,,2013-01-25 15:21:00,
2013-01-25 16:31:00,52.0,38.0,29.47,ENE,74,10.0,10.0,59,0.00,,,0.05,,2013-01-25 15:31:00,
2013-01-25 16:41:00,52.0,38.0,29.47,ENE,74,10.0,10.0,59,0.00,,,0.05,,2013-01-25 15:41:00,
2013-01-25 16:52:00,51.0,37.0,29.47,East,96,6.0,11.0,59,0.00,,,0.05,,2013-01-25 15:52:00,
2013-01-25 17:01:00,51.0,38.0,29.48,ENE,71,8.0,13.0,60,0.00,,,0.05,,2013-01-25 16:01:00,
2013-01-25 17:11:00,51.0,38.0,29.48,ENE,71,8.0,13.0,60,0.00,,,0.05,,2013-01-25 16:11:00,
2013-01-25 17:21:00,51.0,38.0,29.48,East,92,11.0,11.0,60,0.00,,,0.05,,2013-01-25 16:21:00,
2013-01-25 17:31:00,51.0,38.0,29.49,East,86,4.0,9.0,60,0.00,,,0.05,,2013-01-25 16:31:00,
2013-01-25 17:41:00,51.0,38.0,29.49,East,86,4.0,9.0,60,0.00,,,0.05,,2013-01-25 16:41:00,
2013-01-25 17:52:00,51.0,38.0,29.49,East,101,4.0,7.0,60,0.00,,,0.05,,2013-01-25 16:52:00,
2013-01-25 18:01:00,50.0,37.0,29.49,NE,46,1.0,10.0,61,0.00,,,0.03,,2013-01-25 17:01:00,
2013-01-25 18:11:00,50.0,37.0,29.49,NE,46,1.0,10.0,61,0.00,,,0.03,,2013-01-25 17:11:00,
2013-01-25 18:21:00,50.0,38.0,29.51,ENE,68,4.0,10.0,62,0.00,,,0.03,,2013-01-25 17:21:00,
2013-01-25 18:31:00,50.0,38.0,29.51,NE,54,6.0,8.0,62,0.00,,,0.03,,2013-01-25 17:31:00,
2013-01-25 18:42:00,50.0,38.0,29.51,NE,54,6.0,8.0,62,0.00,,,0.03,,2013-01-25 17:42:00,
2013-01-25 18:53:00,49.0,37.0,29.52,ENE,62,6.0,13.0,63,0.00,,,0.03,,2013-01-25 17:53:00,
2013-01-25 19:01:00,49.0,37.0,29.52,NNE,32,2.0,11.0,63,0.00,,,0.03,,2013-01-25 18:01:00,
2013-01-25 19:11:00,49.0,37.0,29.52,NNE,32,2.0,11.0,63,0.00,,,0.03,,2013-01-25 18:11:00,
2013-01-25 19:22:00,49.0,37.0,29.53,NE,47,3.0,10.0,64,0.00,,,0.03,,2013-01-25 18:22:00,
2013-01-25 19:32:00,48.0,37.0,29.53,NE,53,3.0,6.0,65,0.00,,,0.03,,2013-01-25 18:32:00,
2013-01-25 19:41:00,48.0,37.0,29.53,NE,53,3.0,6.0,65,0.00,,,0.03,,2013-01-25 18:41:00,
2013-01-25 19:52:00,48.0,37.0,29.54,NE,42,5.0,10.0,65,0.00,,,0.03,,2013-01-25 18:52:00,
2013-01-25 20:01:00,48.0,37.0,29.54,NE,43,7.0,12.0,65,0.00,,,0.03,,2013-01-25 19:01:00,
2013-01-25 20:11:00,48.0,37.0,29.54,NE,43,7.0,12.0,65,0.00,,,0.03,,2013-01-25 19:11:00,
2013-01-25 20:21:00,48.0,37.0,29.54,ENE,71,6.0,6.0,66,0.00,,,0.03,,2013-01-25 19:21:00,
2013-01-25 20:31:00,48.0,37.0,29.55,ENE,69,4.0,10.0,66,0.00,,,0.03,,2013-01-25 19:31:00,
2013-01-25 20:41:00,48.0,37.0,29.55,ENE,69,4.0,10.0,66,0.00,,,0.03,,2013-01-25 19:41:00,
2013-01-25 20:52:00,47.0,37.0,29.55,ENE,62,8.0,10.0,67,0.00,,,0.03,,2013-01-25 19:52:00,
2013-01-25 21:01:00,47.0,37.0,29.55,NE,53,9.0,11.0,67,0.00,,,0.03,,2013-01-25 20:01:00,
2013-01-25 21:11:00,47.0,37.0,29.55,NE,53,9.0,11.0,67,0.00,,,0.03,,2013-01-25 20:11:00,
2013-01-25 21:21:00,46.0,37.0,29.57,NNE,28,6.0,10.0,70,0.00,,,0.01,,2013-01-25 20:21:00,
2013-01-25 21:31:00,46.0,37.0,29.57,NNE,32,4.0,6.0,70,0.00,,,0.01,,2013-01-25 20:31:00,
2013-01-25 21:41:00,46.0,37.0,29.57,NNE,32,4.0,6.0,70,0.00,,,0.01,,2013-01-25 20:41:00,
2013-01-25 21:52:00,47.0,36.0,29.57,NNE,30,3.0,9.0,65,0.00,,,0.01,,2013-01-25 20:52:00,
2013-01-25 22:01:00,47.0,36.0,29.57,NE,51,7.0,9.0,65,0.00,,,0.01,,2013-01-25 21:01:00,
2013-01-25 22:11:00,47.0,36.0,29.57,NE,51,7.0,9.0,65,0.00,,,0.01,,2013-01-25 21:11:00,
2013-01-25 22:22:00,45.0,36.0,29.57,NE,40,4.0,7.0,71,0.00,,,0.01,,2013-01-25 21:22:00,
2013-01-25 22:32:00,45.0,36.0,29.57,NE,34,5.0,8.0,71,0.00,,,0.01,,2013-01-25 21:32:00,
2013-01-25 22:42:00,45.0,36.0,29.57,NE,34,5.0,8.0,71,0.00,,,0.01,,2013-01-25 21:42:00,
2013-01-25 22:52:00,46.0,36.0,29.58,ENE,63,9.0,10.0,68,0.00,,,0.01,,2013-01-25 21:52:00,
2013-01-25 23:01:00,46.0,36.0,29.58,ENE,59,4.0,8.0,68,0.00,,,0.01,,2013-01-25 22:01:00,
2013-01-25 23:11:00,46.0,36.0,29.59,NE,40,8.0,8.0,67,0.00,,,0.00,,2013-01-25 22:11:00,
2013-01-25 23:21:00,46.0,36.0,29.59,NE,40,8.0,8.0,67,0.00,,,0.00,,2013-01-25 22:21:00,
2013-01-25 23:31:00,46.0,36.0,29.58,ENE,57,9.0,10.0,67,0.00,,,0.00,,2013-01-25 22:31:00,
2013-01-25 23:41:00,46.0,36.0,29.58,ENE,57,9.0,10.0,67,0.00,,,0.00,,2013-01-25 22:41:00,
2013-01-25 23:52:00,46.0,35.0,29.58,NE,37,5.0,10.0,66,0.00,,,0.00,,2013-01-25 22:52:00,